Time;durP1;ratioP1;P1;durP2;ratioP2;P2;SDS_P1;SDS_P2;PMS_P1;PMS_P2;Temp;Humidity;BMP_temperature;BMP_pressure;BME280_temperature;BME280_humidity;BME280_pressure;Samples;Min_cycle;Max_cycle;Signal;HPM_P1;HPM_P2
2024/01/26 00:02:01;;;;;;;20.13;10.48;;;;;;;;;;5007141;28;20030;-79
2024/01/26 00:04:27;;;;;;;18.13;10.18;;;;;;;;;;5007678;28;20030;-78
2024/01/26 00:06:52;;;;;;;20.75;10.68;;;;;;;;;;5008150;28;20044;-76
2024/01/26 00:09:18;;;;;;;22.10;10.45;;;;;;;;;;5006033;28;20033;-79
2024/01/26 00:11:44;;;;;;;22.08;10.80;;;;;;;;;;5008129;28;20092;-78
2024/01/26 00:14:09;;;;;;;20.85;11.07;;;;;;;;;;5008174;28;20088;-79
2024/01/26 00:16:36;;;;;;;17.02;9.52;;;;;;;;;;5009381;28;20041;-77
2024/01/26 00:19:03;;;;;;;21.98;11.00;;;;;;;;;;5008322;28;20038;-78
2024/01/26 00:21:29;;;;;;;21.08;10.52;;;;;;;;;;5009518;28;20051;-78
2024/01/26 00:23:57;;;;;;;17.90;10.23;;;;;;;;;;5009321;28;20394;-78
2024/01/26 00:26:23;;;;;;;18.75;9.70;;;;;;;;;;5009219;28;20047;-78
2024/01/26 00:28:49;;;;;;;24.95;11.20;;;;;;;;;;4989902;28;20045;-78
2024/01/26 00:31:16;;;;;;;24.08;12.50;;;;;;;;;;4991683;28;20395;-78
2024/01/26 00:33:42;;;;;;;22.13;12.98;;;;;;;;;;5006314;28;20373;-78
2024/01/26 00:36:08;;;;;;;23.25;12.07;;;;;;;;;;5008677;28;20050;-78
2024/01/26 00:38:34;;;;;;;21.05;11.95;;;;;;;;;;5009231;28;20044;-78
2024/01/26 00:40:59;;;;;;;25.35;13.02;;;;;;;;;;5008322;28;20519;-78
2024/01/26 00:43:25;;;;;;;25.17;13.65;;;;;;;;;;5009494;28;20044;-77
2024/01/26 00:45:51;;;;;;;24.23;14.30;;;;;;;;;;5009152;28;20029;-78
2024/01/26 00:48:16;;;;;;;25.00;13.55;;;;;;;;;;5007626;28;20030;-77
2024/01/26 00:50:42;;;;;;;22.67;11.70;;;;;;;;;;5009288;28;20046;-76
2024/01/26 00:53:08;;;;;;;24.13;13.13;;;;;;;;;;5008070;28;20049;-77
2024/01/26 00:55:34;;;;;;;23.55;13.27;;;;;;;;;;5007892;28;20148;-77
2024/01/26 00:58:00;;;;;;;24.67;13.15;;;;;;;;;;4992063;28;20037;-78
2024/01/26 01:00:26;;;;;;;23.20;12.05;;;;;;;;;;5007808;28;20527;-78
2024/01/26 01:02:55;;;;;;;21.90;11.80;;;;;;;;;;5008974;28;20235;-78
2024/01/26 01:05:21;;;;;;;22.40;12.20;;;;;;;;;;4991080;28;20480;-78
2024/01/26 01:07:47;;;;;;;27.35;11.90;;;;;;;;;;5016366;28;20091;-77
2024/01/26 01:10:14;;;;;;;20.67;11.75;;;;;;;;;;5027358;28;20057;-78
2024/01/26 01:12:41;;;;;;;22.17;10.65;;;;;;;;;;5028494;28;20029;-78
2024/01/26 01:15:11;;;;;;;29.83;13.30;;;;;;;;;;5028276;28;20083;-78
2024/01/26 01:17:47;;;;;;;28.05;11.98;;;;;;;;;;5019393;28;20033;-78
2024/01/26 01:20:13;;;;;;;22.45;12.80;;;;;;;;;;5008700;28;20045;-78
2024/01/26 01:22:43;;;;;;;23.20;12.27;;;;;;;;;;5007726;28;20520;-78
2024/01/26 01:25:12;;;;;;;24.05;12.55;;;;;;;;;;5008569;28;20084;-78
2024/01/26 01:27:38;;;;;;;20.92;12.35;;;;;;;;;;5008714;28;20113;-78
2024/01/26 01:30:05;;;;;;;23.83;11.43;;;;;;;;;;5008909;28;20113;-78
2024/01/26 01:32:31;;;;;;;20.98;11.63;;;;;;;;;;5009055;28;20476;-78
2024/01/26 01:34:56;;;;;;;22.27;11.75;;;;;;;;;;5008371;28;20056;-78
2024/01/26 01:37:22;;;;;;;20.50;11.80;;;;;;;;;;5008976;28;20415;-78
2024/01/26 01:39:50;;;;;;;27.10;11.32;;;;;;;;;;5009025;28;20480;-80
2024/01/26 01:42:17;;;;;;;18.23;10.90;;;;;;;;;;5009159;28;20030;-79
2024/01/26 01:44:47;;;;;;;13.27;8.32;;;;;;;;;;5008925;28;20033;-79
2024/01/26 01:47:14;;;;;;;21.33;8.20;;;;;;;;;;5006952;28;20053;-80
2024/01/26 01:49:42;;;;;;;14.63;8.77;;;;;;;;;;5007466;28;20042;-78
2024/01/26 01:52:09;;;;;;;15.38;8.07;;;;;;;;;;5008928;28;20025;-78
2024/01/26 01:54:35;;;;;;;12.35;7.50;;;;;;;;;;5008788;28;20038;-78
2024/01/26 01:57:04;;;;;;;20.08;7.90;;;;;;;;;;5008272;28;20041;-79
2024/01/26 01:59:31;;;;;;;14.70;7.50;;;;;;;;;;5011107;28;20041;-78
2024/01/26 02:01:57;;;;;;;15.55;7.35;;;;;;;;;;5015986;28;20122;-78
2024/01/26 02:04:23;;;;;;;19.73;9.25;;;;;;;;;;5014126;28;20033;-78
2024/01/26 02:07:00;;;;;;;18.92;9.27;;;;;;;;;;4998135;28;20575;-78
2024/01/26 02:09:26;;;;;;;17.33;8.57;;;;;;;;;;5014245;28;20461;-78
2024/01/26 02:11:52;;;;;;;14.63;8.90;;;;;;;;;;5015251;28;20494;-78
2024/01/26 02:14:18;;;;;;;16.20;8.85;;;;;;;;;;5015232;28;20101;-78
2024/01/26 02:16:57;;;;;;;20.05;9.18;;;;;;;;;;5015072;28;20053;-78
2024/01/26 02:19:24;;;;;;;15.82;6.95;;;;;;;;;;5015228;28;20499;-78
2024/01/26 02:21:50;;;;;;;12.00;6.95;;;;;;;;;;5015020;28;20479;-78
2024/01/26 02:24:15;;;;;;;14.35;7.15;;;;;;;;;;5014608;28;20037;-77
2024/01/26 02:26:41;;;;;;;12.35;6.75;;;;;;;;;;5009704;28;20506;-78
2024/01/26 02:29:07;;;;;;;13.27;7.07;;;;;;;;;;5013382;28;20026;-78
2024/01/26 02:31:33;;;;;;;12.75;6.78;;;;;;;;;;5013493;28;20034;-78
2024/01/26 02:33:59;;;;;;;9.18;5.20;;;;;;;;;;5014765;28;20423;-80
2024/01/26 02:36:29;;;;;;;10.23;5.53;;;;;;;;;;5013239;28;20026;-78
2024/01/26 02:38:55;;;;;;;8.75;4.95;;;;;;;;;;4997306;28;20072;-78
2024/01/26 02:41:20;;;;;;;11.43;6.30;;;;;;;;;;5014650;28;20045;-78
2024/01/26 02:43:46;;;;;;;12.57;6.90;;;;;;;;;;5014788;28;20025;-78
2024/01/26 02:46:12;;;;;;;11.18;6.85;;;;;;;;;;4996975;28;20042;-78
2024/01/26 02:48:39;;;;;;;13.18;6.68;;;;;;;;;;5013367;28;20121;-78
2024/01/26 02:51:05;;;;;;;14.27;7.13;;;;;;;;;;5014324;28;20076;-78
2024/01/26 02:53:31;;;;;;;11.23;7.22;;;;;;;;;;5014538;28;20041;-79
2024/01/26 02:55:58;;;;;;;12.63;6.90;;;;;;;;;;4996761;28;20119;-78
2024/01/26 02:58:25;;;;;;;15.45;8.50;;;;;;;;;;4996951;28;20083;-78
2024/01/26 03:00:51;;;;;;;12.10;7.93;;;;;;;;;;5013170;28;20112;-78
2024/01/26 03:03:16;;;;;;;14.90;8.45;;;;;;;;;;5013074;28;20464;-78
2024/01/26 03:05:43;;;;;;;13.57;8.55;;;;;;;;;;5013599;28;20025;-79
2024/01/26 03:08:09;;;;;;;14.60;8.35;;;;;;;;;;5014242;28;20029;-78
2024/01/26 03:10:35;;;;;;;19.17;8.82;;;;;;;;;;5012636;28;20178;-78
2024/01/26 03:13:00;;;;;;;14.10;8.18;;;;;;;;;;5012703;28;20052;-78
2024/01/26 03:15:26;;;;;;;14.88;8.40;;;;;;;;;;5013814;28;20407;-78
2024/01/26 03:17:52;;;;;;;18.40;11.13;;;;;;;;;;5013954;28;20056;-79
2024/01/26 03:20:18;;;;;;;18.27;10.63;;;;;;;;;;5013773;28;20109;-78
2024/01/26 03:22:43;;;;;;;25.10;11.30;;;;;;;;;;5013664;28;20034;-79
2024/01/26 03:25:10;;;;;;;23.10;12.05;;;;;;;;;;5012825;28;20044;-79
2024/01/26 03:27:37;;;;;;;31.13;11.93;;;;;;;;;;5013874;28;20515;-79
2024/01/26 03:30:04;;;;;;;22.58;11.70;;;;;;;;;;5012288;28;20128;-79
2024/01/26 03:32:29;;;;;;;19.40;10.25;;;;;;;;;;5013396;28;20022;-79
2024/01/26 03:34:55;;;;;;;21.50;10.85;;;;;;;;;;5013465;28;20057;-79
2024/01/26 03:37:22;;;;;;;21.20;10.50;;;;;;;;;;5013422;28;20037;-79
2024/01/26 03:39:48;;;;;;;22.02;10.63;;;;;;;;;;5012602;28;20542;-79
2024/01/26 03:42:14;;;;;;;23.70;11.80;;;;;;;;;;5013454;28;20033;-79
2024/01/26 03:44:42;;;;;;;30.27;12.23;;;;;;;;;;5012263;28;20420;-79
2024/01/26 03:47:09;;;;;;;40.85;13.30;;;;;;;;;;5013383;28;20407;-79
2024/01/26 03:49:36;;;;;;;30.73;12.35;;;;;;;;;;5013439;28;20403;-79
2024/01/26 03:52:04;;;;;;;21.65;10.85;;;;;;;;;;5013251;28;20042;-79
2024/01/26 03:54:30;;;;;;;19.77;10.63;;;;;;;;;;5013116;28;20046;-79
2024/01/26 03:56:55;;;;;;;21.25;11.80;;;;;;;;;;5013421;28;20045;-79
2024/01/26 03:59:22;;;;;;;23.10;10.82;;;;;;;;;;5012006;28;20045;-79
2024/01/26 04:01:48;;;;;;;18.83;10.77;;;;;;;;;;5013258;28;20030;-79
2024/01/26 04:04:14;;;;;;;17.67;9.90;;;;;;;;;;5011372;28;20465;-79
2024/01/26 04:06:40;;;;;;;16.48;9.45;;;;;;;;;;5013050;28;20025;-78
2024/01/26 04:09:08;;;;;;;18.92;9.90;;;;;;;;;;5011694;28;20068;-79
2024/01/26 04:11:35;;;;;;;17.40;10.73;;;;;;;;;;5012781;28;20109;-79
2024/01/26 04:14:00;;;;;;;21.25;11.23;;;;;;;;;;5012905;28;20096;-79
2024/01/26 04:16:26;;;;;;;20.33;10.68;;;;;;;;;;5011391;28;20381;-77
2024/01/26 04:18:53;;;;;;;17.90;9.60;;;;;;;;;;5011577;28;20125;-78
2024/01/26 04:21:19;;;;;;;23.92;10.68;;;;;;;;;;5010941;28;20095;-79
2024/01/26 04:23:47;;;;;;;31.25;12.02;;;;;;;;;;5011290;28;20046;-79
2024/01/26 04:26:14;;;;;;;28.73;11.10;;;;;;;;;;5012499;28;20498;-79
2024/01/26 04:28:40;;;;;;;22.20;12.02;;;;;;;;;;5011696;28;20128;-79
2024/01/26 04:31:06;;;;;;;25.95;11.98;;;;;;;;;;5013099;28;20116;-78
2024/01/26 04:33:32;;;;;;;29.02;13.82;;;;;;;;;;5011252;28;20680;-79
2024/01/26 04:35:58;;;;;;;24.85;13.27;;;;;;;;;;5012476;28;20037;-78
2024/01/26 04:38:23;;;;;;;28.88;14.68;;;;;;;;;;5011322;28;20099;-78
2024/01/26 04:40:49;;;;;;;28.55;14.77;;;;;;;;;;5012658;28;20048;-78
2024/01/26 04:43:15;;;;;;;34.80;14.77;;;;;;;;;;4995069;28;20053;-78
2024/01/26 04:45:41;;;;;;;29.02;14.95;;;;;;;;;;5012107;28;20458;-78
2024/01/26 04:48:07;;;;;;;24.73;14.07;;;;;;;;;;5012212;28;20506;-78
2024/01/26 04:50:33;;;;;;;28.83;15.20;;;;;;;;;;5012410;28;20490;-79
2024/01/26 04:52:59;;;;;;;31.92;14.57;;;;;;;;;;5010594;28;20057;-78
2024/01/26 04:55:33;;;;;;;31.08;14.73;;;;;;;;;;5010987;28;20072;-81
2024/01/26 04:58:00;;;;;;;33.88;16.23;;;;;;;;;;5012254;28;20034;-79
2024/01/26 05:00:25;;;;;;;41.00;15.15;;;;;;;;;;5011849;28;20026;-79
2024/01/26 05:02:51;;;;;;;40.22;17.95;;;;;;;;;;5012768;28;20121;-79
2024/01/26 05:05:17;;;;;;;28.60;14.23;;;;;;;;;;5010973;28;20069;-79
2024/01/26 05:07:43;;;;;;;45.85;16.17;;;;;;;;;;5010650;28;20468;-79
2024/01/26 05:10:11;;;;;;;41.03;15.82;;;;;;;;;;5011875;28;20061;-78
2024/01/26 05:12:38;;;;;;;42.88;16.65;;;;;;;;;;5011530;28;20030;-79
2024/01/26 05:15:08;;;;;;;37.55;18.33;;;;;;;;;;5011652;28;20391;-79
2024/01/26 05:17:34;;;;;;;65.72;18.02;;;;;;;;;;5010422;28;20037;-79
2024/01/26 05:20:00;;;;;;;35.70;14.57;;;;;;;;;;5009930;28;20041;-79
2024/01/26 05:22:25;;;;;;;33.42;14.95;;;;;;;;;;5011756;28;20026;-79
2024/01/26 05:24:51;;;;;;;35.40;15.55;;;;;;;;;;5010152;28;20061;-79
2024/01/26 05:27:17;;;;;;;24.52;13.48;;;;;;;;;;5010320;28;20030;-79
2024/01/26 05:29:42;;;;;;;26.48;14.27;;;;;;;;;;5011682;28;20038;-79
2024/01/26 05:32:08;;;;;;;34.33;14.63;;;;;;;;;;5011861;28;20510;-80
2024/01/26 05:34:35;;;;;;;39.47;16.67;;;;;;;;;;5014010;28;20415;-79
2024/01/26 05:37:01;;;;;;;43.70;18.08;;;;;;;;;;5013627;28;20056;-79
2024/01/26 05:39:32;;;;;;;45.60;17.90;;;;;;;;;;5014918;28;20117;-79
2024/01/26 05:41:58;;;;;;;41.17;16.95;;;;;;;;;;5015458;28;20387;-79
2024/01/26 05:44:24;;;;;;;52.50;19.52;;;;;;;;;;5015635;28;20053;-78
2024/01/26 05:46:52;;;;;;;39.50;17.08;;;;;;;;;;5015349;28;20499;-78
2024/01/26 05:49:17;;;;;;;39.35;17.33;;;;;;;;;;5015505;28;20052;-80
2024/01/26 05:51:44;;;;;;;30.52;17.65;;;;;;;;;;5015490;28;20053;-79
2024/01/26 05:54:11;;;;;;;38.70;18.17;;;;;;;;;;5015258;28;20498;-79
2024/01/26 05:56:41;;;;;;;66.20;28.35;;;;;;;;;;5013697;28;20087;-79
2024/01/26 05:59:08;;;;;;;53.40;24.33;;;;;;;;;;5014767;28;20052;-79
2024/01/26 06:01:36;;;;;;;77.38;25.40;;;;;;;;;;5014459;28;20443;-81
2024/01/26 06:04:02;;;;;;;57.53;24.13;;;;;;;;;;4997285;28;20033;-79
2024/01/26 06:06:28;;;;;;;43.17;20.40;;;;;;;;;;5014212;28;20038;-80
2024/01/26 06:08:57;;;;;;;55.55;21.30;;;;;;;;;;5013117;28;20033;-82
2024/01/26 06:11:23;;;;;;;49.38;23.75;;;;;;;;;;5014601;28;20033;-79
2024/01/26 06:13:49;;;;;;;45.03;20.00;;;;;;;;;;5013027;28;21301;-77
2024/01/26 06:16:15;;;;;;;29.83;18.30;;;;;;;;;;5013107;28;20038;-76
2024/01/26 06:18:43;;;;;;;48.72;20.15;;;;;;;;;;5013673;28;20025;-76
2024/01/26 06:21:12;;;;;;;44.58;17.98;;;;;;;;;;5013791;28;20068;-78
2024/01/26 06:23:39;;;;;;;77.07;20.75;;;;;;;;;;5011375;28;20040;-78
2024/01/26 06:26:05;;;;;;;43.10;16.83;;;;;;;;;;5012884;28;20419;-78
2024/01/26 06:28:31;;;;;;;58.95;17.02;;;;;;;;;;5012523;28;20113;-78
2024/01/26 06:30:56;;;;;;;51.17;21.35;;;;;;;;;;5012691;28;20056;-76
2024/01/26 06:33:22;;;;;;;50.70;21.17;;;;;;;;;;5013535;28;20026;-77
2024/01/26 06:35:48;;;;;;;43.05;19.90;;;;;;;;;;5011193;28;20045;-77
2024/01/26 06:38:13;;;;;;;88.05;28.38;;;;;;;;;;5013000;28;20041;-77
2024/01/26 06:40:40;;;;;;;56.13;27.00;;;;;;;;;;4995496;28;20017;-76
2024/01/26 06:43:07;;;;;;;58.72;27.05;;;;;;;;;;5012109;28;20114;-77
2024/01/26 06:45:33;;;;;;;69.28;26.80;;;;;;;;;;5013147;28;20034;-75
2024/01/26 06:48:00;;;;;;;62.97;28.42;;;;;;;;;;5012950;28;20378;-77
2024/01/26 06:50:26;;;;;;;48.25;24.85;;;;;;;;;;5013610;28;20049;-77
2024/01/26 06:52:52;;;;;;;54.80;24.65;;;;;;;;;;5013038;28;20510;-76
2024/01/26 06:55:17;;;;;;;62.15;25.80;;;;;;;;;;5012814;28;20030;-76
2024/01/26 06:57:43;;;;;;;45.63;23.40;;;;;;;;;;5012962;28;20048;-77
2024/01/26 07:00:11;;;;;;;42.13;20.35;;;;;;;;;;5014000;28;20040;-77
2024/01/26 07:02:37;;;;;;;35.25;14.85;;;;;;;;;;5013596;28;20399;-77
2024/01/26 07:05:03;;;;;;;30.27;16.42;;;;;;;;;;5000362;28;20038;-77
2024/01/26 07:07:28;;;;;;;34.75;16.55;;;;;;;;;;5007277;28;20037;-77
2024/01/26 07:09:54;;;;;;;31.70;17.88;;;;;;;;;;5011590;28;20121;-77
2024/01/26 07:12:21;;;;;;;27.17;14.52;;;;;;;;;;5012602;28;20022;-76
2024/01/26 07:14:47;;;;;;;23.90;13.65;;;;;;;;;;5011817;28;20069;-77
2024/01/26 07:17:13;;;;;;;33.83;15.50;;;;;;;;;;5012918;28;20083;-77
2024/01/26 07:19:39;;;;;;;32.83;15.32;;;;;;;;;;5012499;28;20049;-76
2024/01/26 07:22:05;;;;;;;32.22;15.50;;;;;;;;;;5024153;28;20408;-77
2024/01/26 07:24:31;;;;;;;54.55;25.60;;;;;;;;;;5017095;28;20434;-78
2024/01/26 07:26:58;;;;;;;44.75;23.00;;;;;;;;;;5012424;28;20053;-78
2024/01/26 07:29:25;;;;;;;32.88;19.55;;;;;;;;;;5012041;28;20109;-77
2024/01/26 07:31:51;;;;;;;36.53;18.20;;;;;;;;;;5011316;28;20038;-76
2024/01/26 07:34:18;;;;;;;32.88;19.35;;;;;;;;;;5012477;28;20022;-76
2024/01/26 07:36:44;;;;;;;44.55;21.63;;;;;;;;;;5028804;28;20030;-77
2024/01/26 07:39:10;;;;;;;40.30;20.67;;;;;;;;;;5012691;28;20461;-77
2024/01/26 07:41:36;;;;;;;51.20;24.48;;;;;;;;;;5010839;28;20061;-77
2024/01/26 07:44:02;;;;;;;46.78;22.77;;;;;;;;;;5012072;28;20092;-77
2024/01/26 07:46:28;;;;;;;36.33;21.15;;;;;;;;;;5012639;28;20488;-79
2024/01/26 07:48:54;;;;;;;41.55;22.25;;;;;;;;;;5010688;28;20032;-77
2024/01/26 07:51:19;;;;;;;39.45;20.92;;;;;;;;;;5009853;28;20120;-77
2024/01/26 07:53:47;;;;;;;53.25;23.27;;;;;;;;;;5011996;28;20129;-76
2024/01/26 07:56:12;;;;;;;38.05;20.52;;;;;;;;;;5011398;28;20022;-77
2024/01/26 07:58:38;;;;;;;43.95;19.92;;;;;;;;;;5010882;28;20107;-75
2024/01/26 08:01:05;;;;;;;32.95;17.33;;;;;;;;;;5011878;28;20037;-77
2024/01/26 08:03:31;;;;;;;32.00;15.10;;;;;;;;;;5039106;28;20029;-75
2024/01/26 08:05:57;;;;;;;20.30;10.88;;;;;;;;;;5010879;28;20033;-76
2024/01/26 08:08:23;;;;;;;34.38;11.77;;;;;;;;;;5012608;28;20041;-76
2024/01/26 08:10:49;;;;;;;51.05;27.08;;;;;;;;;;5010685;28;20030;-77
2024/01/26 08:13:14;;;;;;;40.67;21.85;;;;;;;;;;5012611;28;20026;-76
2024/01/26 08:15:40;;;;;;;45.15;24.85;;;;;;;;;;5012178;28;20514;-76
2024/01/26 08:18:06;;;;;;;44.72;24.92;;;;;;;;;;5011756;28;20464;-76
2024/01/26 08:20:32;;;;;;;48.55;24.63;;;;;;;;;;5011383;28;20391;-76
2024/01/26 08:22:57;;;;;;;46.15;24.20;;;;;;;;;;5011720;28;20037;-76
2024/01/26 08:25:24;;;;;;;55.45;24.23;;;;;;;;;;5011173;28;20092;-76
2024/01/26 08:27:51;;;;;;;38.90;21.50;;;;;;;;;;5010293;28;20075;-77
2024/01/26 08:30:17;;;;;;;43.70;20.98;;;;;;;;;;5012024;28;20033;-76
2024/01/26 08:32:45;;;;;;;37.40;19.85;;;;;;;;;;5011567;28;20509;-77
2024/01/26 08:35:11;;;;;;;34.05;19.52;;;;;;;;;;5011662;28;20022;-77
2024/01/26 08:37:38;;;;;;;44.42;20.05;;;;;;;;;;5009613;28;20150;-75
2024/01/26 08:40:06;;;;;;;36.63;18.73;;;;;;;;;;4994087;28;20053;-78
2024/01/26 08:42:33;;;;;;;36.90;18.40;;;;;;;;;;5011690;28;20158;-76
2024/01/26 08:44:59;;;;;;;29.02;14.30;;;;;;;;;;5010957;28;20029;-77
2024/01/26 08:47:25;;;;;;;19.25;11.45;;;;;;;;;;5011105;28;20044;-75
2024/01/26 08:49:52;;;;;;;25.02;11.20;;;;;;;;;;5010756;28;20046;-77
2024/01/26 08:52:19;;;;;;;24.23;11.43;;;;;;;;;;5010579;28;20148;-77
2024/01/26 08:54:45;;;;;;;20.42;11.40;;;;;;;;;;5010959;28;20030;-76
2024/01/26 08:57:12;;;;;;;20.92;10.68;;;;;;;;;;5009863;28;20045;-76
2024/01/26 08:59:40;;;;;;;18.42;9.57;;;;;;;;;;5012478;28;20034;-76
2024/01/26 09:02:07;;;;;;;18.92;9.48;;;;;;;;;;5011447;28;20034;-76
2024/01/26 09:04:33;;;;;;;20.52;10.38;;;;;;;;;;5011744;28;20040;-76
2024/01/26 09:06:59;;;;;;;15.27;8.43;;;;;;;;;;5010686;28;20030;-78
2024/01/26 09:09:25;;;;;;;14.88;6.63;;;;;;;;;;5009832;28;20045;-75
2024/01/26 09:11:51;;;;;;;22.08;8.10;;;;;;;;;;5010889;28;20025;-76
2024/01/26 09:14:17;;;;;;;16.00;7.63;;;;;;;;;;5010105;28;20061;-75
2024/01/26 09:16:43;;;;;;;10.32;5.30;;;;;;;;;;5009916;28;20499;-76
2024/01/26 09:19:10;;;;;;;10.63;4.97;;;;;;;;;;5001303;28;20060;-76
2024/01/26 09:21:36;;;;;;;10.98;4.70;;;;;;;;;;5010552;28;20038;-76
2024/01/26 09:24:02;;;;;;;10.57;4.57;;;;;;;;;;5010785;28;20030;-75
2024/01/26 09:26:28;;;;;;;9.27;4.40;;;;;;;;;;5011032;28;20080;-76
2024/01/26 09:28:53;;;;;;;11.38;4.22;;;;;;;;;;5009967;28;20036;-75
2024/01/26 09:31:19;;;;;;;8.68;3.30;;;;;;;;;;5010748;28;20348;-76
2024/01/26 09:33:45;;;;;;;8.70;3.80;;;;;;;;;;5011241;28;20030;-75
2024/01/26 09:36:10;;;;;;;7.85;4.40;;;;;;;;;;5010619;28;20029;-77
2024/01/26 09:38:36;;;;;;;8.32;3.60;;;;;;;;;;5010853;28;20064;-77
2024/01/26 09:41:02;;;;;;;7.55;3.88;;;;;;;;;;5011095;28;20041;-77
2024/01/26 09:43:28;;;;;;;10.18;3.80;;;;;;;;;;5008968;28;20463;-76
2024/01/26 09:45:55;;;;;;;10.15;4.45;;;;;;;;;;5010376;28;20107;-76
2024/01/26 09:48:22;;;;;;;6.53;3.80;;;;;;;;;;5009160;28;20036;-77
2024/01/26 09:50:51;;;;;;;8.45;4.15;;;;;;;;;;5009059;28;20025;-75
2024/01/26 09:53:18;;;;;;;15.20;5.05;;;;;;;;;;5010713;28;20034;-75
2024/01/26 09:55:46;;;;;;;7.10;3.83;;;;;;;;;;5010590;28;20506;-75
2024/01/26 09:58:12;;;;;;;9.55;4.70;;;;;;;;;;5008848;28;20121;-76
2024/01/26 10:00:39;;;;;;;8.05;3.90;;;;;;;;;;5010570;28;20068;-76
2024/01/26 10:03:04;;;;;;;8.55;5.68;;;;;;;;;;5010442;28;20057;-76
2024/01/26 10:05:31;;;;;;;7.85;3.90;;;;;;;;;;5008775;28;20066;-76
2024/01/26 10:07:57;;;;;;;7.95;3.67;;;;;;;;;;5011163;28;20186;-76
2024/01/26 10:10:23;;;;;;;7.30;3.63;;;;;;;;;;5002370;28;20117;-76
2024/01/26 10:12:51;;;;;;;12.48;3.83;;;;;;;;;;5011209;28;20488;-75
2024/01/26 10:15:16;;;;;;;10.82;4.47;;;;;;;;;;5011363;28;20049;-76
2024/01/26 10:17:43;;;;;;;9.90;4.50;;;;;;;;;;5009283;28;20494;-77
2024/01/26 10:20:10;;;;;;;8.93;4.25;;;;;;;;;;5011891;28;20411;-76
2024/01/26 10:22:37;;;;;;;7.45;3.58;;;;;;;;;;5014263;28;20048;-76
2024/01/26 10:25:04;;;;;;;6.93;4.15;;;;;;;;;;5013987;28;20041;-76
2024/01/26 10:27:30;;;;;;;6.53;3.35;;;;;;;;;;5012223;28;20129;-76
2024/01/26 10:29:56;;;;;;;17.00;5.25;;;;;;;;;;5013889;28;20026;-76
2024/01/26 10:32:27;;;;;;;6.90;3.50;;;;;;;;;;5013496;28;20040;-76
2024/01/26 10:34:57;;;;;;;9.60;3.63;;;;;;;;;;5013630;28;20041;-75
2024/01/26 10:37:27;;;;;;;11.40;4.03;;;;;;;;;;5013348;28;20037;-77
2024/01/26 10:39:54;;;;;;;5.78;3.17;;;;;;;;;;5013031;28;20036;-77
2024/01/26 10:42:20;;;;;;;13.52;4.22;;;;;;;;;;5013507;28;20168;-77
2024/01/26 10:44:48;;;;;;;9.18;4.30;;;;;;;;;;5011740;28;20033;-77
2024/01/26 10:47:16;;;;;;;7.88;3.17;;;;;;;;;;5011786;28;20056;-76
2024/01/26 10:49:48;;;;;;;11.10;3.53;;;;;;;;;;4995873;28;20076;-76
2024/01/26 10:52:17;;;;;;;8.98;3.28;;;;;;;;;;5014344;28;20033;-76
2024/01/26 10:54:46;;;;;;;10.18;3.03;;;;;;;;;;5020762;28;20030;-76
2024/01/26 10:57:12;;;;;;;5.63;2.47;;;;;;;;;;5011504;28;20030;-77
2024/01/26 10:59:41;;;;;;;10.70;2.75;;;;;;;;;;5012157;28;20052;-77
2024/01/26 11:02:13;;;;;;;7.47;3.35;;;;;;;;;;5011756;28;20021;-77
2024/01/26 11:04:42;;;;;;;7.80;3.50;;;;;;;;;;5013363;28;20104;-78
2024/01/26 11:07:09;;;;;;;6.97;2.80;;;;;;;;;;5010885;28;20037;-77
2024/01/26 11:09:39;;;;;;;11.77;2.95;;;;;;;;;;5013060;28;20054;-75
2024/01/26 11:12:18;;;;;;;8.80;3.60;;;;;;;;;;5012808;28;20189;-75
2024/01/26 11:14:44;;;;;;;7.32;3.00;;;;;;;;;;4993849;28;20026;-76
2024/01/26 11:17:11;;;;;;;8.60;2.63;;;;;;;;;;5010962;28;20014;-76
2024/01/26 11:19:37;;;;;;;7.43;2.90;;;;;;;;;;5012632;28;20041;-76
2024/01/26 11:22:07;;;;;;;7.15;2.30;;;;;;;;;;5010748;28;20045;-76
2024/01/26 11:24:34;;;;;;;6.55;2.75;;;;;;;;;;5008211;28;20030;-77
2024/01/26 11:27:01;;;;;;;9.45;3.75;;;;;;;;;;4991630;28;20038;-75
2024/01/26 11:29:33;;;;;;;5.05;2.40;;;;;;;;;;4994270;28;20427;-77
2024/01/26 11:31:59;;;;;;;5.50;2.40;;;;;;;;;;5006629;28;20092;-77
2024/01/26 11:34:26;;;;;;;8.60;3.35;;;;;;;;;;5010321;28;20030;-77
2024/01/26 11:37:14;;;;;;;6.88;2.90;;;;;;;;;;5010293;28;20034;-78
2024/01/26 11:39:41;;;;;;;10.52;4.25;;;;;;;;;;5004938;28;20076;-78
2024/01/26 11:42:11;;;;;;;8.80;2.88;;;;;;;;;;5014742;28;20041;-76
2024/01/26 11:45:08;;;;;;;8.65;3.42;;;;;;;;;;5012840;28;20045;-78
2024/01/26 11:47:37;;;;;;;11.30;3.95;;;;;;;;;;5012470;28;20034;-78
2024/01/26 11:50:08;;;;;;;10.55;3.58;;;;;;;;;;5012400;28;20420;-77
2024/01/26 11:52:35;;;;;;;12.27;4.05;;;;;;;;;;5011480;28;20510;-77
2024/01/26 11:55:02;;;;;;;11.82;3.78;;;;;;;;;;5012792;28;20088;-78
2024/01/26 11:57:29;;;;;;;8.57;3.58;;;;;;;;;;5012954;28;20114;-77
2024/01/26 11:59:58;;;;;;;8.32;3.67;;;;;;;;;;5011090;28;20045;-78
2024/01/26 12:02:25;;;;;;;10.52;5.57;;;;;;;;;;5011451;28;20045;-75
2024/01/26 12:04:51;;;;;;;9.63;3.20;;;;;;;;;;5011538;28;20026;-78
2024/01/26 12:07:17;;;;;;;6.15;2.83;;;;;;;;;;5011108;28;20095;-78
2024/01/26 12:09:43;;;;;;;12.57;3.33;;;;;;;;;;5011077;28;20041;-77
2024/01/26 12:12:10;;;;;;;6.35;3.30;;;;;;;;;;5011130;28;20025;-78
2024/01/26 12:14:38;;;;;;;10.23;3.72;;;;;;;;;;5012409;28;20049;-76
2024/01/26 12:17:04;;;;;;;12.52;4.00;;;;;;;;;;5012244;28;20065;-77
2024/01/26 12:19:31;;;;;;;11.10;3.97;;;;;;;;;;5012525;28;20140;-76
2024/01/26 12:21:57;;;;;;;10.35;4.13;;;;;;;;;;5010541;28;20407;-77
2024/01/26 12:24:23;;;;;;;15.50;4.25;;;;;;;;;;5011706;28;20033;-77
2024/01/26 12:26:52;;;;;;;5.75;3.50;;;;;;;;;;5012463;28;20117;-79
2024/01/26 12:29:19;;;;;;;17.50;5.57;;;;;;;;;;5011955;28;20038;-78
2024/01/26 12:31:44;;;;;;;13.00;4.05;;;;;;;;;;4994798;28;20132;-77
2024/01/26 12:34:12;;;;;;;10.40;5.15;;;;;;;;;;5012400;28;20084;-77
2024/01/26 12:36:39;;;;;;;7.88;4.75;;;;;;;;;;5011858;28;20052;-78
2024/01/26 12:39:05;;;;;;;9.00;4.28;;;;;;;;;;5011420;28;20109;-79
2024/01/26 12:41:32;;;;;;;7.03;3.58;;;;;;;;;;5010877;28;20494;-77
2024/01/26 12:44:00;;;;;;;6.75;3.40;;;;;;;;;;5011188;28;20034;-77
2024/01/26 12:46:27;;;;;;;9.55;3.25;;;;;;;;;;5011896;28;20044;-78
2024/01/26 12:48:53;;;;;;;6.18;2.90;;;;;;;;;;5011327;28;20042;-77
2024/01/26 12:51:19;;;;;;;10.57;3.88;;;;;;;;;;5010716;28;20075;-77
2024/01/26 12:53:47;;;;;;;9.55;4.00;;;;;;;;;;5011353;28;20373;-77
2024/01/26 12:56:13;;;;;;;10.80;3.63;;;;;;;;;;5010674;28;20053;-79
2024/01/26 12:58:39;;;;;;;12.85;5.18;;;;;;;;;;5011971;28;20384;-77
2024/01/26 13:01:05;;;;;;;10.50;5.43;;;;;;;;;;5012347;28;20377;-77
2024/01/26 13:03:32;;;;;;;9.57;4.57;;;;;;;;;;5010862;28;20049;-80
2024/01/26 13:06:01;;;;;;;12.40;3.72;;;;;;;;;;5010576;28;20392;-80
2024/01/26 13:08:27;;;;;;;9.45;3.90;;;;;;;;;;5010622;28;20071;-77
2024/01/26 13:10:53;;;;;;;6.72;3.33;;;;;;;;;;5011675;28;20034;-76
2024/01/26 13:13:19;;;;;;;16.08;4.38;;;;;;;;;;5010044;28;20479;-76
2024/01/26 13:15:45;;;;;;;8.63;4.40;;;;;;;;;;5010809;28;20032;-77
2024/01/26 13:18:13;;;;;;;7.45;3.38;;;;;;;;;;5011877;28;20033;-76
2024/01/26 13:20:38;;;;;;;10.73;3.63;;;;;;;;;;5011326;28;20030;-76
2024/01/26 13:23:04;;;;;;;8.98;3.58;;;;;;;;;;5010071;28;20087;-77
2024/01/26 13:25:31;;;;;;;12.18;3.97;;;;;;;;;;5010224;28;20033;-77
2024/01/26 13:27:57;;;;;;;8.88;2.97;;;;;;;;;;5010685;28;20075;-78
2024/01/26 13:30:23;;;;;;;10.00;3.20;;;;;;;;;;5010939;28;20042;-79
2024/01/26 13:32:49;;;;;;;6.70;3.03;;;;;;;;;;5010659;28;20498;-77
2024/01/26 13:35:15;;;;;;;9.15;4.13;;;;;;;;;;5011667;28;20061;-78
2024/01/26 13:37:41;;;;;;;17.38;7.25;;;;;;;;;;5011322;28;20072;-78
2024/01/26 13:40:07;;;;;;;13.55;4.55;;;;;;;;;;5010021;28;20038;-77
2024/01/26 13:42:33;;;;;;;16.92;4.00;;;;;;;;;;5011995;28;20456;-76
2024/01/26 13:45:00;;;;;;;5.60;2.45;;;;;;;;;;4993630;28;20139;-76
2024/01/26 13:47:26;;;;;;;12.27;3.88;;;;;;;;;;5011258;28;20377;-77
2024/01/26 13:49:55;;;;;;;7.80;2.72;;;;;;;;;;5011569;28;20025;-78
2024/01/26 13:52:21;;;;;;;9.65;3.33;;;;;;;;;;5011211;28;20468;-76
2024/01/26 13:54:47;;;;;;;11.77;3.30;;;;;;;;;;5011672;28;20026;-76
2024/01/26 13:57:15;;;;;;;5.90;2.25;;;;;;;;;;5013709;28;20040;-76
2024/01/26 13:59:44;;;;;;;8.15;2.60;;;;;;;;;;5014246;28;20084;-75
2024/01/26 14:02:10;;;;;;;8.05;3.15;;;;;;;;;;5015393;28;20041;-77
2024/01/26 14:04:36;;;;;;;7.82;3.40;;;;;;;;;;5014638;28;20080;-76
2024/01/26 14:07:02;;;;;;;10.82;3.70;;;;;;;;;;5014310;28;20053;-78
2024/01/26 14:09:34;;;;;;;6.13;2.63;;;;;;;;;;5015116;28;20112;-79
2024/01/26 14:12:00;;;;;;;6.13;2.28;;;;;;;;;;5015250;28;20050;-79
2024/01/26 14:14:26;;;;;;;8.65;2.75;;;;;;;;;;5014201;28;20037;-78
2024/01/26 14:16:52;;;;;;;8.45;2.38;;;;;;;;;;5014749;28;20036;-78
2024/01/26 14:19:19;;;;;;;9.35;3.22;;;;;;;;;;5013540;28;20022;-78
2024/01/26 14:21:46;;;;;;;14.10;4.93;;;;;;;;;;5014380;28;20041;-78
2024/01/26 14:24:12;;;;;;;9.50;2.70;;;;;;;;;;5012900;28;20053;-78